createdAt,value
2024-02-29T00:06:45.920Z,14.00
2024-02-29T00:16:45.547Z,13.30
2024-02-29T00:26:45.167Z,14.40
2024-02-29T00:36:44.831Z,13.20
2024-02-29T00:46:44.449Z,12.20
2024-02-29T00:56:44.552Z,14.90
2024-02-29T01:06:43.715Z,13.00
2024-02-29T01:16:43.346Z,14.70
2024-02-29T01:26:42.958Z,13.70
2024-02-29T01:36:42.672Z,15.70
2024-02-29T01:46:42.218Z,15.30
2024-02-29T01:56:41.856Z,17.00
2024-02-29T02:06:36.473Z,15.80
2024-02-29T02:16:36.321Z,15.30
2024-02-29T02:26:35.610Z,14.70
2024-02-29T02:36:35.278Z,16.60
2024-02-29T02:46:34.872Z,17.40
2024-02-29T02:56:34.478Z,13.30
2024-02-29T03:06:34.141Z,18.10
2024-02-29T03:16:33.722Z,14.20
2024-02-29T03:26:33.359Z,16.40
2024-02-29T03:36:33.012Z,14.70
2024-02-29T03:46:32.613Z,14.50
2024-02-29T03:56:32.232Z,14.80
2024-02-29T04:06:31.937Z,16.30
2024-02-29T04:16:31.487Z,15.40
2024-02-29T04:26:31.127Z,15.60
2024-02-29T04:36:30.904Z,15.50
2024-02-29T04:46:30.365Z,14.50
2024-02-29T04:56:29.969Z,17.80
2024-02-29T05:06:29.583Z,15.00
2024-02-29T05:16:29.067Z,15.20
2024-02-29T05:26:23.815Z,13.50
2024-02-29T05:36:23.468Z,15.90
2024-02-29T05:46:23.092Z,15.10
2024-02-29T05:56:22.673Z,14.40
2024-02-29T06:06:22.256Z,12.80
2024-02-29T06:16:21.933Z,12.50
2024-02-29T06:26:21.557Z,15.00
2024-02-29T06:36:21.456Z,14.80
2024-02-29T06:46:20.794Z,14.10
2024-02-29T06:56:20.409Z,13.40
2024-02-29T07:06:20.001Z,13.00
2024-02-29T07:16:19.688Z,12.90
2024-02-29T07:26:19.239Z,11.30
2024-02-29T07:36:18.842Z,9.70
2024-02-29T07:46:18.558Z,9.50
2024-02-29T07:56:18.467Z,9.20
2024-02-29T08:06:17.707Z,9.50
2024-02-29T08:16:17.435Z,8.60
2024-02-29T08:26:16.972Z,7.80
2024-02-29T08:36:16.608Z,9.10
2024-02-29T08:46:16.263Z,8.10
2024-02-29T08:56:15.835Z,7.80
2024-02-29T09:06:15.527Z,8.60
2024-02-29T09:16:15.129Z,9.80
2024-02-29T09:26:14.786Z,8.50
2024-02-29T09:36:14.402Z,8.60
2024-02-29T09:46:14.024Z,7.60
2024-02-29T09:56:13.597Z,6.80
2024-02-29T10:06:13.307Z,7.80
2024-02-29T10:16:12.954Z,6.80
2024-02-29T10:26:12.571Z,8.30
2024-02-29T10:36:12.287Z,7.80
2024-02-29T10:46:11.821Z,8.10
2024-02-29T10:56:11.403Z,6.60
2024-02-29T11:06:11.004Z,6.60
2024-02-29T11:16:10.632Z,8.00
2024-02-29T11:26:10.422Z,6.70
2024-02-29T11:36:09.916Z,6.70
2024-02-29T11:46:09.561Z,5.70
2024-02-29T11:56:14.210Z,5.90
2024-02-29T12:06:08.793Z,7.40
2024-02-29T12:16:08.621Z,6.90
2024-02-29T12:26:08.036Z,6.70
2024-02-29T12:36:07.838Z,5.70
2024-02-29T12:46:07.308Z,5.60
2024-02-29T12:56:06.929Z,5.30
2024-02-29T13:06:06.586Z,6.10
2024-02-29T13:16:06.223Z,6.00
2024-02-29T13:26:06.080Z,5.80
2024-02-29T13:36:05.415Z,6.50
2024-02-29T13:46:05.240Z,5.30
2024-02-29T13:56:05.217Z,6.20
2024-02-29T14:06:05.235Z,6.50
2024-02-29T14:16:05.305Z,7.20
2024-02-29T14:26:05.303Z,7.50
2024-02-29T14:36:05.362Z,7.10
2024-02-29T14:46:05.349Z,6.00
2024-02-29T14:56:05.311Z,4.90
2024-02-29T15:06:05.389Z,4.90
2024-02-29T15:16:05.390Z,5.20
2024-02-29T15:26:05.438Z,5.00
2024-02-29T15:36:05.477Z,5.60
2024-02-29T15:46:05.638Z,4.80
2024-02-29T15:56:05.616Z,5.30
2024-02-29T16:06:05.552Z,5.10
2024-02-29T16:16:05.644Z,6.90
2024-02-29T16:26:05.556Z,5.90
2024-02-29T16:36:05.550Z,5.80
2024-02-29T16:46:05.570Z,6.20
2024-02-29T16:56:05.529Z,6.20
2024-02-29T17:06:05.503Z,4.60
2024-02-29T17:16:05.522Z,5.40
2024-02-29T17:26:05.808Z,6.90
2024-02-29T17:36:05.576Z,5.90
2024-02-29T17:46:05.609Z,4.20
2024-02-29T17:56:05.618Z,6.20
2024-02-29T18:06:05.670Z,8.20
2024-02-29T18:16:05.665Z,8.80
2024-02-29T18:26:05.581Z,8.20
2024-02-29T18:36:05.536Z,8.50
2024-02-29T18:46:06.255Z,10.80
2024-02-29T18:56:05.332Z,10.20
2024-02-29T19:06:05.381Z,9.60
2024-02-29T19:16:05.123Z,8.00
2024-02-29T19:26:04.964Z,7.10
2024-02-29T19:36:04.796Z,8.90
2024-02-29T19:46:04.632Z,7.60
2024-02-29T19:56:04.429Z,9.50
2024-02-29T20:06:04.174Z,9.20
2024-02-29T20:16:03.960Z,9.40
2024-02-29T20:26:03.723Z,8.90
2024-02-29T20:36:03.552Z,10.80
2024-02-29T20:46:03.312Z,10.60
2024-02-29T20:56:03.117Z,10.80
2024-02-29T21:06:02.904Z,12.20
2024-02-29T21:16:02.657Z,13.80
2024-02-29T21:26:02.533Z,13.10
2024-02-29T21:36:02.096Z,13.30
2024-02-29T21:46:01.874Z,13.00
2024-02-29T21:56:01.509Z,14.70
2024-02-29T22:06:01.195Z,13.30
2024-02-29T22:16:00.942Z,15.00
2024-02-29T22:26:00.538Z,16.30
2024-02-29T22:36:00.229Z,15.80
2024-02-29T22:45:59.988Z,16.00
2024-02-29T22:55:59.550Z,16.10
2024-02-29T23:05:59.213Z,15.20
2024-02-29T23:15:58.912Z,15.70
2024-02-29T23:25:58.608Z,17.10
2024-02-29T23:35:58.341Z,17.10
2024-02-29T23:45:57.784Z,18.20
2024-02-29T23:55:57.429Z,18.00
